sensor_id;sensor_type;location;lat;lon;timestamp;P1;durP1;ratioP1;P2;durP2;ratioP2
52456;SDS011;38369;52.840;7.082;2022-11-04T00:01:16;17.95;;;12.25;;
52456;SDS011;38369;52.840;7.082;2022-11-04T00:03:42;16.40;;;11.98;;
52456;SDS011;38369;52.840;7.082;2022-11-04T00:06:08;17.00;;;13.80;;
52456;SDS011;38369;52.840;7.082;2022-11-04T00:08:34;15.18;;;11.82;;
52456;SDS011;38369;52.840;7.082;2022-11-04T00:11:01;15.27;;;11.60;;
52456;SDS011;38369;52.840;7.082;2022-11-04T00:13:46;14.32;;;10.70;;
52456;SDS011;38369;52.840;7.082;2022-11-04T00:16:13;13.25;;;9.93;;
52456;SDS011;38369;52.840;7.082;2022-11-04T00:19:08;11.55;;;9.73;;
52456;SDS011;38369;52.840;7.082;2022-11-04T00:21:35;10.07;;;8.45;;
52456;SDS011;38369;52.840;7.082;2022-11-04T00:24:19;8.73;;;7.00;;
52456;SDS011;38369;52.840;7.082;2022-11-04T00:26:54;14.27;;;6.93;;
52456;SDS011;38369;52.840;7.082;2022-11-04T00:29:39;8.18;;;6.07;;
52456;SDS011;38369;52.840;7.082;2022-11-04T00:32:05;10.95;;;5.40;;
52456;SDS011;38369;52.840;7.082;2022-11-04T00:34:50;4.97;;;3.97;;
52456;SDS011;38369;52.840;7.082;2022-11-04T00:37:16;6.18;;;3.42;;
52456;SDS011;38369;52.840;7.082;2022-11-04T00:39:42;4.82;;;2.55;;
52456;SDS011;38369;52.840;7.082;2022-11-04T00:42:08;3.70;;;2.45;;
52456;SDS011;38369;52.840;7.082;2022-11-04T00:44:34;2.67;;;1.48;;
52456;SDS011;38369;52.840;7.082;2022-11-04T00:47:00;2.25;;;1.30;;
52456;SDS011;38369;52.840;7.082;2022-11-04T00:49:26;2.55;;;1.10;;
52456;SDS011;38369;52.840;7.082;2022-11-04T00:51:52;2.83;;;1.40;;
52456;SDS011;38369;52.840;7.082;2022-11-04T00:54:18;2.55;;;1.40;;
52456;SDS011;38369;52.840;7.082;2022-11-04T00:56:44;1.98;;;1.02;;
52456;SDS011;38369;52.840;7.082;2022-11-04T00:59:12;3.78;;;1.40;;
52456;SDS011;38369;52.840;7.082;2022-11-04T01:01:38;3.42;;;1.38;;
52456;SDS011;38369;52.840;7.082;2022-11-04T01:04:04;1.17;;;0.70;;
52456;SDS011;38369;52.840;7.082;2022-11-04T01:06:30;2.72;;;0.90;;
52456;SDS011;38369;52.840;7.082;2022-11-04T01:08:57;2.03;;;0.65;;
52456;SDS011;38369;52.840;7.082;2022-11-04T01:11:23;1.05;;;0.50;;
52456;SDS011;38369;52.840;7.082;2022-11-04T01:13:50;3.00;;;0.50;;
52456;SDS011;38369;52.840;7.082;2022-11-04T01:16:16;2.58;;;0.82;;
52456;SDS011;38369;52.840;7.082;2022-11-04T01:18:42;4.93;;;0.88;;
52456;SDS011;38369;52.840;7.082;2022-11-04T01:21:09;1.58;;;0.70;;
52456;SDS011;38369;52.840;7.082;2022-11-04T01:23:37;1.52;;;0.85;;
52456;SDS011;38369;52.840;7.082;2022-11-04T01:26:04;3.83;;;0.70;;
52456;SDS011;38369;52.840;7.082;2022-11-04T01:28:30;4.75;;;0.80;;
52456;SDS011;38369;52.840;7.082;2022-11-04T01:30:56;2.75;;;0.75;;
52456;SDS011;38369;52.840;7.082;2022-11-04T01:33:22;1.17;;;0.60;;
52456;SDS011;38369;52.840;7.082;2022-11-04T01:35:49;2.53;;;1.00;;
52456;SDS011;38369;52.840;7.082;2022-11-04T01:38:15;1.65;;;0.75;;
52456;SDS011;38369;52.840;7.082;2022-11-04T01:40:41;0.80;;;0.70;;
52456;SDS011;38369;52.840;7.082;2022-11-04T01:43:15;1.90;;;0.90;;
52456;SDS011;38369;52.840;7.082;2022-11-04T01:45:48;1.35;;;0.75;;
52456;SDS011;38369;52.840;7.082;2022-11-04T01:48:24;1.90;;;0.85;;
52456;SDS011;38369;52.840;7.082;2022-11-04T01:50:51;4.43;;;0.85;;
52456;SDS011;38369;52.840;7.082;2022-11-04T01:53:20;1.33;;;0.70;;
52456;SDS011;38369;52.840;7.082;2022-11-04T01:55:50;2.70;;;0.70;;
52456;SDS011;38369;52.840;7.082;2022-11-04T01:58:17;2.47;;;0.88;;
52456;SDS011;38369;52.840;7.082;2022-11-04T02:00:44;4.68;;;0.80;;
52456;SDS011;38369;52.840;7.082;2022-11-04T02:05:36;1.23;;;0.80;;
52456;SDS011;38369;52.840;7.082;2022-11-04T02:08:03;1.98;;;0.90;;
52456;SDS011;38369;52.840;7.082;2022-11-04T02:10:30;1.35;;;0.88;;
52456;SDS011;38369;52.840;7.082;2022-11-04T02:12:57;3.60;;;1.20;;
52456;SDS011;38369;52.840;7.082;2022-11-04T02:28:45;3.45;;;2.00;;
52456;SDS011;38369;52.840;7.082;2022-11-04T02:33:48;4.60;;;2.60;;
52456;SDS011;38369;52.840;7.082;2022-11-04T02:41:24;9.32;;;4.38;;
52456;SDS011;38369;52.840;7.082;2022-11-04T02:43:56;5.35;;;3.85;;
52456;SDS011;38369;52.840;7.082;2022-11-04T02:46:30;13.68;;;4.22;;
52456;SDS011;38369;52.840;7.082;2022-11-04T02:49:00;8.05;;;5.05;;
52456;SDS011;38369;52.840;7.082;2022-11-04T02:51:32;8.88;;;3.88;;
52456;SDS011;38369;52.840;7.082;2022-11-04T02:56:46;8.65;;;5.22;;
52456;SDS011;38369;52.840;7.082;2022-11-04T02:59:15;9.38;;;4.88;;
52456;SDS011;38369;52.840;7.082;2022-11-04T03:01:42;9.48;;;5.20;;
52456;SDS011;38369;52.840;7.082;2022-11-04T03:04:12;20.80;;;5.80;;
52456;SDS011;38369;52.840;7.082;2022-11-04T03:06:40;8.95;;;5.10;;
52456;SDS011;38369;52.840;7.082;2022-11-04T03:09:07;14.43;;;6.13;;
52456;SDS011;38369;52.840;7.082;2022-11-04T03:11:33;22.58;;;6.93;;
52456;SDS011;38369;52.840;7.082;2022-11-04T03:14:05;10.40;;;4.32;;
52456;SDS011;38369;52.840;7.082;2022-11-04T03:16:36;8.57;;;3.58;;
52456;SDS011;38369;52.840;7.082;2022-11-04T03:21:52;9.00;;;5.47;;
52456;SDS011;38369;52.840;7.082;2022-11-04T03:24:20;10.65;;;5.93;;
52456;SDS011;38369;52.840;7.082;2022-11-04T03:27:03;15.43;;;6.60;;
52456;SDS011;38369;52.840;7.082;2022-11-04T03:34:41;7.20;;;4.60;;
52456;SDS011;38369;52.840;7.082;2022-11-04T03:37:07;9.50;;;5.15;;
52456;SDS011;38369;52.840;7.082;2022-11-04T03:39:34;8.30;;;4.78;;
52456;SDS011;38369;52.840;7.082;2022-11-04T03:42:01;8.77;;;5.70;;
52456;SDS011;38369;52.840;7.082;2022-11-04T03:44:44;10.02;;;6.13;;
52456;SDS011;38369;52.840;7.082;2022-11-04T03:47:10;8.48;;;5.15;;
52456;SDS011;38369;52.840;7.082;2022-11-04T03:49:36;9.20;;;6.10;;
52456;SDS011;38369;52.840;7.082;2022-11-04T03:52:02;8.07;;;5.22;;
52456;SDS011;38369;52.840;7.082;2022-11-04T03:54:28;5.35;;;3.90;;
52456;SDS011;38369;52.840;7.082;2022-11-04T04:02:26;6.53;;;3.03;;
52456;SDS011;38369;52.840;7.082;2022-11-04T04:04:56;6.07;;;3.85;;
52456;SDS011;38369;52.840;7.082;2022-11-04T04:07:29;4.60;;;3.45;;
52456;SDS011;38369;52.840;7.082;2022-11-04T04:09:59;5.05;;;2.78;;
52456;SDS011;38369;52.840;7.082;2022-11-04T04:12:37;4.35;;;3.05;;
52456;SDS011;38369;52.840;7.082;2022-11-04T04:15:16;7.28;;;3.33;;
52456;SDS011;38369;52.840;7.082;2022-11-04T04:17:49;6.57;;;4.22;;
52456;SDS011;38369;52.840;7.082;2022-11-04T04:20:18;4.70;;;3.47;;
52456;SDS011;38369;52.840;7.082;2022-11-04T04:22:53;4.88;;;3.22;;
52456;SDS011;38369;52.840;7.082;2022-11-04T04:25:20;4.28;;;2.05;;
52456;SDS011;38369;52.840;7.082;2022-11-04T04:28:07;3.47;;;1.50;;
52456;SDS011;38369;52.840;7.082;2022-11-04T04:30:35;2.47;;;1.27;;
52456;SDS011;38369;52.840;7.082;2022-11-04T04:33:05;6.93;;;1.50;;
52456;SDS011;38369;52.840;7.082;2022-11-04T04:35:33;3.42;;;1.20;;
52456;SDS011;38369;52.840;7.082;2022-11-04T04:38:08;2.63;;;0.70;;
52456;SDS011;38369;52.840;7.082;2022-11-04T04:41:20;4.07;;;0.80;;
52456;SDS011;38369;52.840;7.082;2022-11-04T04:44:02;1.15;;;0.70;;
52456;SDS011;38369;52.840;7.082;2022-11-04T04:46:48;1.20;;;0.70;;
52456;SDS011;38369;52.840;7.082;2022-11-04T04:49:15;2.83;;;0.70;;
52456;SDS011;38369;52.840;7.082;2022-11-04T04:51:42;1.25;;;0.57;;
52456;SDS011;38369;52.840;7.082;2022-11-04T04:54:09;1.63;;;0.50;;
52456;SDS011;38369;52.840;7.082;2022-11-04T04:56:35;2.08;;;0.60;;
52456;SDS011;38369;52.840;7.082;2022-11-04T04:59:01;2.60;;;0.90;;
52456;SDS011;38369;52.840;7.082;2022-11-04T05:01:27;1.08;;;0.60;;
52456;SDS011;38369;52.840;7.082;2022-11-04T05:03:53;1.42;;;0.63;;
52456;SDS011;38369;52.840;7.082;2022-11-04T05:06:19;2.42;;;0.70;;
52456;SDS011;38369;52.840;7.082;2022-11-04T05:08:45;3.40;;;0.80;;
52456;SDS011;38369;52.840;7.082;2022-11-04T05:11:11;3.22;;;0.85;;
52456;SDS011;38369;52.840;7.082;2022-11-04T05:13:38;2.67;;;1.00;;
52456;SDS011;38369;52.840;7.082;2022-11-04T05:16:04;1.63;;;0.82;;
52456;SDS011;38369;52.840;7.082;2022-11-04T05:18:31;2.15;;;1.00;;
52456;SDS011;38369;52.840;7.082;2022-11-04T05:20:57;3.80;;;0.90;;
52456;SDS011;38369;52.840;7.082;2022-11-04T05:23:23;2.70;;;1.10;;
52456;SDS011;38369;52.840;7.082;2022-11-04T05:25:49;6.70;;;1.23;;
52456;SDS011;38369;52.840;7.082;2022-11-04T05:28:15;2.08;;;0.90;;
52456;SDS011;38369;52.840;7.082;2022-11-04T05:30:41;2.35;;;0.95;;
52456;SDS011;38369;52.840;7.082;2022-11-04T05:33:08;3.10;;;1.10;;
52456;SDS011;38369;52.840;7.082;2022-11-04T05:35:34;2.55;;;1.20;;
52456;SDS011;38369;52.840;7.082;2022-11-04T05:38:00;3.53;;;1.10;;
52456;SDS011;38369;52.840;7.082;2022-11-04T05:40:26;2.42;;;1.15;;
52456;SDS011;38369;52.840;7.082;2022-11-04T05:42:52;3.67;;;1.05;;
52456;SDS011;38369;52.840;7.082;2022-11-04T05:45:18;4.63;;;1.05;;
52456;SDS011;38369;52.840;7.082;2022-11-04T05:47:44;3.25;;;1.00;;
52456;SDS011;38369;52.840;7.082;2022-11-04T05:50:10;1.90;;;1.00;;
52456;SDS011;38369;52.840;7.082;2022-11-04T05:52:36;6.20;;;1.50;;
52456;SDS011;38369;52.840;7.082;2022-11-04T05:55:03;2.80;;;1.30;;
52456;SDS011;38369;52.840;7.082;2022-11-04T05:57:29;3.00;;;1.17;;
52456;SDS011;38369;52.840;7.082;2022-11-04T05:59:55;1.73;;;1.15;;
52456;SDS011;38369;52.840;7.082;2022-11-04T06:02:21;2.92;;;1.25;;
52456;SDS011;38369;52.840;7.082;2022-11-04T06:04:47;2.35;;;1.35;;
52456;SDS011;38369;52.840;7.082;2022-11-04T06:07:13;3.63;;;1.50;;
52456;SDS011;38369;52.840;7.082;2022-11-04T06:09:39;3.92;;;1.20;;
52456;SDS011;38369;52.840;7.082;2022-11-04T06:12:09;3.90;;;0.98;;
52456;SDS011;38369;52.840;7.082;2022-11-04T06:14:35;5.05;;;1.20;;
52456;SDS011;38369;52.840;7.082;2022-11-04T06:17:02;2.33;;;0.95;;
52456;SDS011;38369;52.840;7.082;2022-11-04T06:19:28;1.45;;;0.80;;
52456;SDS011;38369;52.840;7.082;2022-11-04T06:21:54;4.25;;;1.50;;
52456;SDS011;38369;52.840;7.082;2022-11-04T06:24:20;2.53;;;0.70;;
52456;SDS011;38369;52.840;7.082;2022-11-04T06:26:46;3.50;;;1.02;;
52456;SDS011;38369;52.840;7.082;2022-11-04T06:29:12;4.00;;;1.30;;
52456;SDS011;38369;52.840;7.082;2022-11-04T06:31:38;2.20;;;1.10;;
52456;SDS011;38369;52.840;7.082;2022-11-04T06:34:04;3.97;;;1.27;;
52456;SDS011;38369;52.840;7.082;2022-11-04T06:36:31;2.35;;;1.02;;
52456;SDS011;38369;52.840;7.082;2022-11-04T06:38:57;1.50;;;1.00;;
52456;SDS011;38369;52.840;7.082;2022-11-04T06:41:23;2.75;;;1.13;;
52456;SDS011;38369;52.840;7.082;2022-11-04T06:43:49;2.78;;;1.15;;
52456;SDS011;38369;52.840;7.082;2022-11-04T06:46:25;1.17;;;0.80;;
52456;SDS011;38369;52.840;7.082;2022-11-04T06:48:51;2.42;;;0.98;;
52456;SDS011;38369;52.840;7.082;2022-11-04T06:51:17;1.52;;;0.80;;
52456;SDS011;38369;52.840;7.082;2022-11-04T06:53:43;3.97;;;1.60;;
52456;SDS011;38369;52.840;7.082;2022-11-04T06:56:10;5.40;;;1.45;;
52456;SDS011;38369;52.840;7.082;2022-11-04T06:58:36;3.08;;;1.40;;
52456;SDS011;38369;52.840;7.082;2022-11-04T07:01:02;2.53;;;1.20;;
52456;SDS011;38369;52.840;7.082;2022-11-04T07:03:28;3.22;;;1.65;;
52456;SDS011;38369;52.840;7.082;2022-11-04T07:05:54;4.68;;;2.10;;
52456;SDS011;38369;52.840;7.082;2022-11-04T07:08:20;8.07;;;3.85;;
52456;SDS011;38369;52.840;7.082;2022-11-04T07:10:46;3.28;;;2.20;;
52456;SDS011;38369;52.840;7.082;2022-11-04T07:13:12;3.95;;;2.00;;
52456;SDS011;38369;52.840;7.082;2022-11-04T07:15:40;4.43;;;2.20;;
52456;SDS011;38369;52.840;7.082;2022-11-04T07:18:06;3.03;;;2.00;;
52456;SDS011;38369;52.840;7.082;2022-11-04T07:20:33;4.15;;;2.35;;
52456;SDS011;38369;52.840;7.082;2022-11-04T07:22:59;4.32;;;2.20;;
52456;SDS011;38369;52.840;7.082;2022-11-04T07:25:25;4.22;;;2.22;;
52456;SDS011;38369;52.840;7.082;2022-11-04T07:27:51;7.35;;;2.17;;
52456;SDS011;38369;52.840;7.082;2022-11-04T07:30:17;5.85;;;2.90;;
52456;SDS011;38369;52.840;7.082;2022-11-04T07:32:45;7.25;;;2.65;;
52456;SDS011;38369;52.840;7.082;2022-11-04T07:35:11;8.52;;;2.90;;
52456;SDS011;38369;52.840;7.082;2022-11-04T07:37:38;5.93;;;3.20;;
52456;SDS011;38369;52.840;7.082;2022-11-04T07:40:04;5.35;;;2.63;;
52456;SDS011;38369;52.840;7.082;2022-11-04T07:42:31;4.22;;;2.83;;
52456;SDS011;38369;52.840;7.082;2022-11-04T07:44:57;5.88;;;2.60;;
52456;SDS011;38369;52.840;7.082;2022-11-04T07:47:23;5.38;;;2.55;;
52456;SDS011;38369;52.840;7.082;2022-11-04T07:49:49;3.97;;;2.90;;
52456;SDS011;38369;52.840;7.082;2022-11-04T07:52:15;6.47;;;2.92;;
52456;SDS011;38369;52.840;7.082;2022-11-04T07:54:41;6.82;;;4.10;;
52456;SDS011;38369;52.840;7.082;2022-11-04T07:57:07;7.45;;;3.88;;
52456;SDS011;38369;52.840;7.082;2022-11-04T07:59:33;6.03;;;3.90;;
52456;SDS011;38369;52.840;7.082;2022-11-04T08:01:59;9.52;;;4.93;;
52456;SDS011;38369;52.840;7.082;2022-11-04T08:04:25;9.20;;;5.75;;
52456;SDS011;38369;52.840;7.082;2022-11-04T08:06:51;8.57;;;6.30;;
52456;SDS011;38369;52.840;7.082;2022-11-04T08:09:18;9.85;;;6.25;;
52456;SDS011;38369;52.840;7.082;2022-11-04T08:11:44;8.18;;;6.65;;
52456;SDS011;38369;52.840;7.082;2022-11-04T08:14:10;12.55;;;7.25;;
52456;SDS011;38369;52.840;7.082;2022-11-04T08:16:36;13.23;;;8.73;;
52456;SDS011;38369;52.840;7.082;2022-11-04T08:19:02;13.05;;;8.27;;
52456;SDS011;38369;52.840;7.082;2022-11-04T08:21:29;12.02;;;9.20;;
52456;SDS011;38369;52.840;7.082;2022-11-04T08:23:56;15.95;;;9.57;;
52456;SDS011;38369;52.840;7.082;2022-11-04T08:26:22;14.85;;;10.02;;
52456;SDS011;38369;52.840;7.082;2022-11-04T08:28:48;15.02;;;8.77;;
52456;SDS011;38369;52.840;7.082;2022-11-04T08:31:19;16.83;;;11.93;;
52456;SDS011;38369;52.840;7.082;2022-11-04T08:33:46;20.02;;;11.77;;
52456;SDS011;38369;52.840;7.082;2022-11-04T08:36:23;17.73;;;11.20;;
52456;SDS011;38369;52.840;7.082;2022-11-04T08:38:49;21.65;;;11.52;;
52456;SDS011;38369;52.840;7.082;2022-11-04T08:41:18;20.15;;;12.65;;
52456;SDS011;38369;52.840;7.082;2022-11-04T08:43:44;18.27;;;12.82;;
52456;SDS011;38369;52.840;7.082;2022-11-04T08:46:11;17.67;;;11.63;;
52456;SDS011;38369;52.840;7.082;2022-11-04T08:48:38;23.52;;;13.02;;
52456;SDS011;38369;52.840;7.082;2022-11-04T08:51:06;19.85;;;11.43;;
52456;SDS011;38369;52.840;7.082;2022-11-04T08:53:32;16.23;;;11.65;;
52456;SDS011;38369;52.840;7.082;2022-11-04T08:55:58;17.25;;;12.43;;
52456;SDS011;38369;52.840;7.082;2022-11-04T08:58:24;20.60;;;13.30;;
52456;SDS011;38369;52.840;7.082;2022-11-04T09:00:50;14.75;;;11.00;;
52456;SDS011;38369;52.840;7.082;2022-11-04T09:03:17;21.67;;;11.73;;
52456;SDS011;38369;52.840;7.082;2022-11-04T09:05:43;23.92;;;14.05;;
52456;SDS011;38369;52.840;7.082;2022-11-04T09:08:11;21.42;;;12.77;;
52456;SDS011;38369;52.840;7.082;2022-11-04T09:10:40;22.13;;;13.13;;
52456;SDS011;38369;52.840;7.082;2022-11-04T09:13:07;19.00;;;11.73;;
52456;SDS011;38369;52.840;7.082;2022-11-04T09:15:35;39.58;;;13.48;;
52456;SDS011;38369;52.840;7.082;2022-11-04T09:18:02;20.20;;;12.20;;
52456;SDS011;38369;52.840;7.082;2022-11-04T09:20:28;17.45;;;12.27;;
52456;SDS011;38369;52.840;7.082;2022-11-04T09:22:55;19.13;;;12.73;;
52456;SDS011;38369;52.840;7.082;2022-11-04T09:25:21;20.65;;;12.65;;
52456;SDS011;38369;52.840;7.082;2022-11-04T09:27:47;17.65;;;11.85;;
52456;SDS011;38369;52.840;7.082;2022-11-04T09:30:13;18.67;;;12.85;;
52456;SDS011;38369;52.840;7.082;2022-11-04T09:32:39;16.52;;;11.15;;
52456;SDS011;38369;52.840;7.082;2022-11-04T09:35:06;18.90;;;11.57;;
52456;SDS011;38369;52.840;7.082;2022-11-04T09:37:32;16.67;;;11.25;;
52456;SDS011;38369;52.840;7.082;2022-11-04T09:39:58;17.73;;;11.32;;
52456;SDS011;38369;52.840;7.082;2022-11-04T09:45:17;19.00;;;12.27;;
52456;SDS011;38369;52.840;7.082;2022-11-04T09:47:43;19.20;;;11.95;;
52456;SDS011;38369;52.840;7.082;2022-11-04T09:50:15;21.65;;;13.40;;
52456;SDS011;38369;52.840;7.082;2022-11-04T09:52:43;19.92;;;13.07;;
52456;SDS011;38369;52.840;7.082;2022-11-04T09:57:41;22.60;;;13.32;;
52456;SDS011;38369;52.840;7.082;2022-11-04T10:00:13;23.20;;;14.55;;
52456;SDS011;38369;52.840;7.082;2022-11-04T10:10:26;20.73;;;13.15;;
52456;SDS011;38369;52.840;7.082;2022-11-04T10:13:01;16.80;;;12.15;;
52456;SDS011;38369;52.840;7.082;2022-11-04T10:25:42;24.98;;;15.55;;
52456;SDS011;38369;52.840;7.082;2022-11-04T10:28:13;22.85;;;14.82;;
52456;SDS011;38369;52.840;7.082;2022-11-04T10:30:40;31.30;;;16.98;;
52456;SDS011;38369;52.840;7.082;2022-11-04T10:33:23;24.77;;;15.90;;
52456;SDS011;38369;52.840;7.082;2022-11-04T10:35:52;24.77;;;15.27;;
52456;SDS011;38369;52.840;7.082;2022-11-04T10:41:39;27.02;;;16.80;;
52456;SDS011;38369;52.840;7.082;2022-11-04T10:44:09;25.92;;;15.63;;
52456;SDS011;38369;52.840;7.082;2022-11-04T10:51:43;24.80;;;16.73;;
52456;SDS011;38369;52.840;7.082;2022-11-04T10:54:10;28.60;;;16.25;;
52456;SDS011;38369;52.840;7.082;2022-11-04T11:01:48;24.25;;;15.48;;
52456;SDS011;38369;52.840;7.082;2022-11-04T11:04:26;23.15;;;15.75;;
52456;SDS011;38369;52.840;7.082;2022-11-04T11:06:53;23.67;;;15.15;;
52456;SDS011;38369;52.840;7.082;2022-11-04T11:09:20;18.35;;;11.20;;
52456;SDS011;38369;52.840;7.082;2022-11-04T11:11:52;18.73;;;13.45;;
52456;SDS011;38369;52.840;7.082;2022-11-04T11:16:55;19.23;;;12.02;;
52456;SDS011;38369;52.840;7.082;2022-11-04T11:19:22;19.17;;;12.65;;
52456;SDS011;38369;52.840;7.082;2022-11-04T11:21:54;19.13;;;12.07;;
52456;SDS011;38369;52.840;7.082;2022-11-04T11:24:22;26.73;;;15.00;;
52456;SDS011;38369;52.840;7.082;2022-11-04T11:26:48;19.15;;;13.23;;
52456;SDS011;38369;52.840;7.082;2022-11-04T11:29:24;25.70;;;14.85;;
52456;SDS011;38369;52.840;7.082;2022-11-04T11:31:52;23.63;;;13.80;;
52456;SDS011;38369;52.840;7.082;2022-11-04T11:34:25;22.08;;;14.30;;
52456;SDS011;38369;52.840;7.082;2022-11-04T11:36:53;25.88;;;16.30;;
52456;SDS011;38369;52.840;7.082;2022-11-04T11:39:20;22.05;;;14.18;;
52456;SDS011;38369;52.840;7.082;2022-11-04T11:46:49;19.63;;;13.10;;
52456;SDS011;38369;52.840;7.082;2022-11-04T11:49:21;22.73;;;15.63;;
52456;SDS011;38369;52.840;7.082;2022-11-04T11:51:48;20.63;;;13.85;;
52456;SDS011;38369;52.840;7.082;2022-11-04T11:54:32;19.75;;;12.00;;
52456;SDS011;38369;52.840;7.082;2022-11-04T11:57:02;24.50;;;14.93;;
52456;SDS011;38369;52.840;7.082;2022-11-04T11:59:49;20.52;;;13.52;;
52456;SDS011;38369;52.840;7.082;2022-11-04T12:05:02;20.80;;;13.40;;
52456;SDS011;38369;52.840;7.082;2022-11-04T12:07:37;18.85;;;12.48;;
52456;SDS011;38369;52.840;7.082;2022-11-04T12:21:13;15.07;;;10.70;;
52456;SDS011;38369;52.840;7.082;2022-11-04T12:23:49;12.38;;;7.22;;
52456;SDS011;38369;52.840;7.082;2022-11-04T12:31:33;14.00;;;8.38;;
52456;SDS011;38369;52.840;7.082;2022-11-04T12:41:41;15.18;;;9.43;;
52456;SDS011;38369;52.840;7.082;2022-11-04T12:46:38;18.52;;;9.27;;
52456;SDS011;38369;52.840;7.082;2022-11-04T12:51:59;14.27;;;8.30;;
52456;SDS011;38369;52.840;7.082;2022-11-04T13:04:36;9.52;;;5.93;;
52456;SDS011;38369;52.840;7.082;2022-11-04T13:07:06;10.10;;;5.20;;
52456;SDS011;38369;52.840;7.082;2022-11-04T13:09:42;13.00;;;6.35;;
52456;SDS011;38369;52.840;7.082;2022-11-04T13:12:16;11.75;;;6.60;;
52456;SDS011;38369;52.840;7.082;2022-11-04T13:17:09;5.38;;;1.50;;
52456;SDS011;38369;52.840;7.082;2022-11-04T13:22:07;6.45;;;1.65;;
52456;SDS011;38369;52.840;7.082;2022-11-04T13:24:37;7.38;;;1.25;;
52456;SDS011;38369;52.840;7.082;2022-11-04T13:27:08;7.95;;;1.08;;
52456;SDS011;38369;52.840;7.082;2022-11-04T13:29:37;4.70;;;0.75;;
52456;SDS011;38369;52.840;7.082;2022-11-04T13:37:07;5.40;;;0.80;;
52456;SDS011;38369;52.840;7.082;2022-11-04T13:39:41;4.80;;;1.00;;
52456;SDS011;38369;52.840;7.082;2022-11-04T13:44:40;5.03;;;0.90;;
52456;SDS011;38369;52.840;7.082;2022-11-04T13:47:16;2.53;;;0.85;;
52456;SDS011;38369;52.840;7.082;2022-11-04T13:49:47;3.63;;;0.80;;
52456;SDS011;38369;52.840;7.082;2022-11-04T13:52:13;4.40;;;1.05;;
52456;SDS011;38369;52.840;7.082;2022-11-04T13:57:21;5.22;;;1.15;;
52456;SDS011;38369;52.840;7.082;2022-11-04T14:02:37;5.82;;;0.90;;
52456;SDS011;38369;52.840;7.082;2022-11-04T14:16:11;3.05;;;0.90;;
52456;SDS011;38369;52.840;7.082;2022-11-04T14:18:39;2.83;;;0.85;;
52456;SDS011;38369;52.840;7.082;2022-11-04T14:23:31;3.38;;;1.15;;
52456;SDS011;38369;52.840;7.082;2022-11-04T14:26:02;8.82;;;1.20;;
52456;SDS011;38369;52.840;7.082;2022-11-04T14:28:29;2.45;;;1.08;;
52456;SDS011;38369;52.840;7.082;2022-11-04T14:35:48;3.88;;;1.20;;
52456;SDS011;38369;52.840;7.082;2022-11-04T14:38:29;3.70;;;1.10;;
52456;SDS011;38369;52.840;7.082;2022-11-04T14:41:57;3.67;;;1.00;;
52456;SDS011;38369;52.840;7.082;2022-11-04T14:43:51;4.28;;;1.08;;
52456;SDS011;38369;52.840;7.082;2022-11-04T14:46:26;3.80;;;1.13;;
52456;SDS011;38369;52.840;7.082;2022-11-04T14:48:55;4.55;;;1.10;;
52456;SDS011;38369;52.840;7.082;2022-11-04T14:51:25;2.63;;;0.98;;
52456;SDS011;38369;52.840;7.082;2022-11-04T14:56:21;3.67;;;1.25;;
52456;SDS011;38369;52.840;7.082;2022-11-04T14:59:02;4.38;;;0.95;;
52456;SDS011;38369;52.840;7.082;2022-11-04T15:01:38;5.13;;;1.35;;
52456;SDS011;38369;52.840;7.082;2022-11-04T15:04:06;5.43;;;1.00;;
52456;SDS011;38369;52.840;7.082;2022-11-04T15:06:36;4.40;;;1.20;;
52456;SDS011;38369;52.840;7.082;2022-11-04T15:09:02;4.22;;;1.17;;
52456;SDS011;38369;52.840;7.082;2022-11-04T15:11:29;5.60;;;1.20;;
52456;SDS011;38369;52.840;7.082;2022-11-04T15:14:20;5.53;;;1.08;;
52456;SDS011;38369;52.840;7.082;2022-11-04T15:16:47;4.75;;;0.88;;
52456;SDS011;38369;52.840;7.082;2022-11-04T15:19:17;3.65;;;0.90;;
52456;SDS011;38369;52.840;7.082;2022-11-04T15:21:45;3.95;;;1.92;;
52456;SDS011;38369;52.840;7.082;2022-11-04T15:24:13;6.43;;;1.25;;
52456;SDS011;38369;52.840;7.082;2022-11-04T15:26:41;10.43;;;1.35;;
52456;SDS011;38369;52.840;7.082;2022-11-04T15:29:09;2.15;;;1.17;;
52456;SDS011;38369;52.840;7.082;2022-11-04T15:31:37;3.42;;;1.15;;
52456;SDS011;38369;52.840;7.082;2022-11-04T15:34:04;3.20;;;1.73;;
52456;SDS011;38369;52.840;7.082;2022-11-04T15:36:35;5.22;;;1.50;;
52456;SDS011;38369;52.840;7.082;2022-11-04T15:39:04;4.00;;;1.67;;
52456;SDS011;38369;52.840;7.082;2022-11-04T15:41:30;5.00;;;1.02;;
52456;SDS011;38369;52.840;7.082;2022-11-04T15:44:26;7.50;;;1.40;;
52456;SDS011;38369;52.840;7.082;2022-11-04T15:46:55;4.10;;;1.27;;
52456;SDS011;38369;52.840;7.082;2022-11-04T15:51:48;5.68;;;1.27;;
52456;SDS011;38369;52.840;7.082;2022-11-04T15:54:19;4.38;;;1.80;;
52456;SDS011;38369;52.840;7.082;2022-11-04T15:56:47;4.72;;;1.60;;
52456;SDS011;38369;52.840;7.082;2022-11-04T15:59:17;4.80;;;1.85;;
52456;SDS011;38369;52.840;7.082;2022-11-04T16:01:47;7.32;;;1.70;;
52456;SDS011;38369;52.840;7.082;2022-11-04T16:04:14;5.07;;;2.40;;
52456;SDS011;38369;52.840;7.082;2022-11-04T16:06:42;5.60;;;1.92;;
52456;SDS011;38369;52.840;7.082;2022-11-04T16:11:35;7.15;;;2.13;;
52456;SDS011;38369;52.840;7.082;2022-11-04T16:14:24;7.03;;;1.90;;
52456;SDS011;38369;52.840;7.082;2022-11-04T16:16:53;3.30;;;1.85;;
52456;SDS011;38369;52.840;7.082;2022-11-04T16:19:20;5.45;;;1.90;;
52456;SDS011;38369;52.840;7.082;2022-11-04T16:21:46;3.17;;;1.73;;
52456;SDS011;38369;52.840;7.082;2022-11-04T16:26:44;6.45;;;2.65;;
52456;SDS011;38369;52.840;7.082;2022-11-04T16:29:13;8.20;;;2.55;;
52456;SDS011;38369;52.840;7.082;2022-11-04T16:31:42;6.00;;;2.08;;
52456;SDS011;38369;52.840;7.082;2022-11-04T16:34:12;7.13;;;2.35;;
52456;SDS011;38369;52.840;7.082;2022-11-04T16:36:38;7.65;;;2.30;;
52456;SDS011;38369;52.840;7.082;2022-11-04T16:39:05;4.95;;;1.90;;
52456;SDS011;38369;52.840;7.082;2022-11-04T16:41:39;5.75;;;3.25;;
52456;SDS011;38369;52.840;7.082;2022-11-04T16:44:17;5.07;;;2.78;;
52456;SDS011;38369;52.840;7.082;2022-11-04T16:46:44;5.00;;;2.08;;
52456;SDS011;38369;52.840;7.082;2022-11-04T16:49:12;7.53;;;2.40;;
52456;SDS011;38369;52.840;7.082;2022-11-04T16:51:39;9.63;;;2.33;;
52456;SDS011;38369;52.840;7.082;2022-11-04T16:54:05;4.82;;;2.10;;
52456;SDS011;38369;52.840;7.082;2022-11-04T16:56:31;6.80;;;2.42;;
52456;SDS011;38369;52.840;7.082;2022-11-04T16:58:58;5.95;;;2.03;;
52456;SDS011;38369;52.840;7.082;2022-11-04T17:01:24;8.40;;;2.40;;
52456;SDS011;38369;52.840;7.082;2022-11-04T17:03:50;6.60;;;2.30;;
52456;SDS011;38369;52.840;7.082;2022-11-04T17:06:16;6.25;;;2.13;;
52456;SDS011;38369;52.840;7.082;2022-11-04T17:08:42;4.82;;;2.10;;
52456;SDS011;38369;52.840;7.082;2022-11-04T17:11:09;9.13;;;2.40;;
52456;SDS011;38369;52.840;7.082;2022-11-04T17:13:35;6.97;;;1.98;;
52456;SDS011;38369;52.840;7.082;2022-11-04T17:16:02;7.80;;;2.28;;
52456;SDS011;38369;52.840;7.082;2022-11-04T17:18:31;4.88;;;2.40;;
52456;SDS011;38369;52.840;7.082;2022-11-04T17:20:57;6.35;;;2.78;;
52456;SDS011;38369;52.840;7.082;2022-11-04T17:23:25;7.28;;;3.20;;
52456;SDS011;38369;52.840;7.082;2022-11-04T17:25:51;9.05;;;3.42;;
52456;SDS011;38369;52.840;7.082;2022-11-04T17:28:17;7.32;;;3.20;;
52456;SDS011;38369;52.840;7.082;2022-11-04T17:30:43;6.40;;;3.15;;
52456;SDS011;38369;52.840;7.082;2022-11-04T17:33:13;7.47;;;3.10;;
52456;SDS011;38369;52.840;7.082;2022-11-04T17:35:40;8.85;;;3.45;;
52456;SDS011;38369;52.840;7.082;2022-11-04T17:38:08;9.38;;;3.13;;
52456;SDS011;38369;52.840;7.082;2022-11-04T17:40:34;11.18;;;3.22;;
52456;SDS011;38369;52.840;7.082;2022-11-04T17:43:20;5.28;;;3.10;;